Time;durP1;ratioP1;P1;durP2;ratioP2;P2;SDS_P1;SDS_P2;PMS_P1;PMS_P2;Temp;Humidity;BMP_temperature;BMP_pressure;BME280_temperature;BME280_humidity;BME280_pressure;Samples;Min_cycle;Max_cycle;Signal;HPM_P1;HPM_P2
2023/03/21 00:00:26;;;;;;;2.47;1.97;;;9.30;99.90;;;;;;4999384;28;20689;-72
2023/03/21 00:02:52;;;;;;;3.17;1.97;;;9.30;99.90;;;;;;4994499;28;20613;-73
2023/03/21 00:05:19;;;;;;;2.60;1.63;;;9.20;99.90;;;;;;4999920;28;20659;-72
2023/03/21 00:07:45;;;;;;;3.10;2.10;;;9.20;99.90;;;;;;5001161;28;20245;-73
2023/03/21 00:10:11;;;;;;;4.50;2.07;;;9.20;99.90;;;;;;4998698;28;21026;-72
2023/03/21 00:12:36;;;;;;;2.10;1.70;;;9.10;99.90;;;;;;4996843;28;20560;-73
2023/03/21 00:15:06;;;;;;;2.23;2.10;;;9.10;99.90;;;;;;5000747;28;20214;-73
2023/03/21 00:17:32;;;;;;;3.23;1.90;;;9.10;99.90;;;;;;4999734;28;20200;-73
2023/03/21 00:19:59;;;;;;;3.20;2.40;;;9.20;99.90;;;;;;4999335;28;20440;-74
2023/03/21 00:22:26;;;;;;;2.43;2.23;;;9.10;99.90;;;;;;4999366;28;20437;-73
2023/03/21 00:24:52;;;;;;;2.40;2.20;;;9.10;99.90;;;;;;4991617;28;20678;-73
2023/03/21 00:27:20;;;;;;;1.87;1.77;;;9.10;99.90;;;;;;4990313;28;20534;-73
2023/03/21 00:29:50;;;;;;;2.37;1.70;;;9.10;99.90;;;;;;4988778;28;20454;-72
2023/03/21 00:32:16;;;;;;;3.03;2.10;;;9.10;99.90;;;;;;4991634;28;20465;-73
2023/03/21 00:34:42;;;;;;;2.40;1.90;;;9.10;99.90;;;;;;4989944;28;20496;-71
2023/03/21 00:37:10;;;;;;;3.40;2.60;;;9.10;99.90;;;;;;4991340;28;20515;-73
2023/03/21 00:39:36;;;;;;;2.27;2.07;;;9.10;99.90;;;;;;4991319;28;20186;-73
2023/03/21 00:42:02;;;;;;;3.33;2.37;;;9.10;99.90;;;;;;4983457;28;20504;-73
2023/03/21 00:44:28;;;;;;;3.20;2.90;;;9.10;99.90;;;;;;4991375;28;20438;-73
2023/03/21 00:46:54;;;;;;;2.63;2.40;;;9.10;99.90;;;;;;4991156;28;20995;-73
2023/03/21 00:49:19;;;;;;;2.47;2.27;;;9.00;99.90;;;;;;4991206;28;20543;-72
2023/03/21 00:51:50;;;;;;;2.13;1.93;;;9.10;99.90;;;;;;4993789;28;20253;-73
2023/03/21 00:54:16;;;;;;;2.70;2.20;;;9.10;99.90;;;;;;4993534;28;20636;-73
2023/03/21 00:56:42;;;;;;;2.13;2.03;;;9.00;99.90;;;;;;4995154;28;20442;-72
2023/03/21 00:59:07;;;;;;;3.93;2.70;;;9.00;99.90;;;;;;4995102;28;20438;-73
2023/03/21 01:01:33;;;;;;;13.03;2.30;;;9.00;99.90;;;;;;4995189;28;20215;-73
2023/03/21 01:04:06;;;;;;;2.70;2.50;;;9.00;99.90;;;;;;4994455;28;20199;-71
2023/03/21 01:06:38;;;;;;;2.40;2.17;;;9.00;99.90;;;;;;4995298;28;20941;-73
2023/03/21 01:09:05;;;;;;;6.70;1.97;;;9.00;99.90;;;;;;4994811;28;20430;-72
2023/03/21 01:11:30;;;;;;;2.23;2.03;;;9.00;99.90;;;;;;4994898;28;20545;-73
2023/03/21 01:13:56;;;;;;;2.67;2.47;;;8.90;99.90;;;;;;4994115;28;20560;-74
2023/03/21 01:16:23;;;;;;;4.10;2.20;;;8.90;99.90;;;;;;4994738;28;20277;-72
2023/03/21 01:18:48;;;;;;;2.00;1.90;;;8.90;99.90;;;;;;4993281;28;20431;-73
2023/03/21 01:21:14;;;;;;;2.93;2.13;;;8.90;99.90;;;;;;4994377;28;20955;-73
2023/03/21 01:23:42;;;;;;;2.27;2.07;;;8.90;99.90;;;;;;4994004;28;20191;-72
2023/03/21 01:26:09;;;;;;;3.20;1.90;;;8.90;99.90;;;;;;4994516;28;20267;-73
2023/03/21 01:28:36;;;;;;;3.63;1.90;;;8.80;99.90;;;;;;4994688;28;20437;-73
2023/03/21 01:31:03;;;;;;;2.10;1.90;;;8.80;99.90;;;;;;4993788;28;20469;-73
2023/03/21 01:33:30;;;;;;;3.03;2.00;;;8.80;99.90;;;;;;4994173;28;20427;-74
2023/03/21 01:35:57;;;;;;;3.10;1.83;;;8.80;99.90;;;;;;4994098;28;20826;-73
2023/03/21 01:38:23;;;;;;;1.80;1.70;;;8.80;99.90;;;;;;4994468;28;20446;-74
2023/03/21 01:40:50;;;;;;;4.93;1.90;;;8.80;99.90;;;;;;4993991;28;20564;-73
2023/03/21 01:43:31;;;;;;;3.07;2.00;;;8.80;99.90;;;;;;4993880;28;20475;-73
2023/03/21 01:46:09;;;;;;;3.10;1.80;;;8.80;99.90;;;;;;4994012;28;20442;-74
2023/03/21 01:48:39;;;;;;;3.00;2.40;;;8.80;99.90;;;;;;4994404;28;20719;-73
2023/03/21 01:51:06;;;;;;;2.10;2.00;;;8.80;99.90;;;;;;4993884;28;20538;-74
2023/03/21 01:53:33;;;;;;;1.97;1.87;;;8.80;99.90;;;;;;4993807;28;20828;-73
2023/03/21 01:56:09;;;;;;;2.70;2.50;;;8.70;99.90;;;;;;4993755;28;20435;-70
2023/03/21 01:58:36;;;;;;;2.63;2.43;;;8.80;99.90;;;;;;4994167;28;20430;-72
2023/03/21 03:31:44;;;;;;;3.37;2.10;;;8.30;99.90;;;;;;5561385;23;20512;-72
2023/03/21 03:34:16;;;;;;;2.87;1.67;;;8.30;99.90;;;;;;5007712;28;20515;-75
2023/03/21 03:36:50;;;;;;;1.87;1.77;;;8.30;99.90;;;;;;5011057;28;20464;-72
2023/03/21 03:39:16;;;;;;;3.80;2.37;;;8.30;99.90;;;;;;5011757;28;20449;-74
2023/03/21 03:42:20;;;;;;;2.47;2.27;;;8.30;99.90;;;;;;4999084;28;20831;-75
2023/03/21 03:44:46;;;;;;;4.57;2.53;;;8.30;99.90;;;;;;4975905;28;20450;-74
2023/03/21 03:47:22;;;;;;;2.77;2.53;;;8.30;99.90;;;;;;4983894;28;20870;-73
2023/03/21 03:49:56;;;;;;;2.13;2.03;;;8.30;99.90;;;;;;4991814;28;20194;-73
2023/03/21 03:52:35;;;;;;;2.40;2.20;;;8.30;99.90;;;;;;4990741;28;20453;-73
2023/03/21 03:55:02;;;;;;;4.23;2.90;;;8.30;99.90;;;;;;4989956;28;20472;-75
2023/03/21 03:57:29;;;;;;;3.03;2.10;;;8.30;99.90;;;;;;4991934;28;20433;-73
2023/03/21 03:59:54;;;;;;;2.30;2.20;;;8.30;99.90;;;;;;4991465;28;20835;-74
2023/03/21 04:02:20;;;;;;;2.33;2.10;;;8.30;99.90;;;;;;4990804;28;20479;-72
2023/03/21 04:04:46;;;;;;;4.13;3.30;;;8.30;99.90;;;;;;4991676;28;20663;-72
2023/03/21 04:07:12;;;;;;;4.67;3.03;;;8.30;99.90;;;;;;4991467;28;20217;-70
2023/03/21 04:09:38;;;;;;;3.37;3.03;;;8.20;99.90;;;;;;4991702;28;20443;-72
2023/03/21 04:12:03;;;;;;;3.87;3.50;;;8.20;99.90;;;;;;4991245;28;21200;-72
2023/03/21 04:14:29;;;;;;;4.40;3.60;;;8.20;99.90;;;;;;4991180;28;20217;-72
2023/03/21 04:16:54;;;;;;;3.60;3.30;;;8.20;99.90;;;;;;4991143;28;20197;-71
2023/03/21 04:19:20;;;;;;;4.60;4.30;;;8.10;99.90;;;;;;4991427;28;20188;-70
2023/03/21 04:21:46;;;;;;;6.17;3.93;;;8.10;99.90;;;;;;4991479;28;20211;-72
2023/03/21 04:24:12;;;;;;;4.30;3.73;;;8.10;99.90;;;;;;4991526;28;20729;-69
2023/03/21 04:26:39;;;;;;;4.00;2.83;;;8.10;99.90;;;;;;4991350;28;20431;-71
2023/03/21 04:29:05;;;;;;;4.53;3.33;;;8.00;99.90;;;;;;4991109;28;20768;-70
2023/03/21 04:31:32;;;;;;;3.97;3.67;;;8.00;99.90;;;;;;4991241;28;20476;-72
2023/03/21 04:33:59;;;;;;;5.70;3.23;;;7.90;99.90;;;;;;4990987;28;20472;-72
2023/03/21 04:36:37;;;;;;;4.33;3.93;;;7.90;99.90;;;;;;4991409;28;20441;-72
2023/03/21 04:39:10;;;;;;;4.97;2.83;;;7.80;99.90;;;;;;4991072;28;20438;-71
2023/03/21 04:41:36;;;;;;;5.33;4.00;;;7.80;99.90;;;;;;4991362;28;20643;-72
2023/03/21 04:44:02;;;;;;;4.43;3.90;;;7.70;99.90;;;;;;4990947;28;20440;-71
2023/03/21 04:46:28;;;;;;;3.90;3.60;;;7.70;99.90;;;;;;4991324;28;20431;-73
2023/03/21 04:48:53;;;;;;;4.10;3.70;;;7.60;99.90;;;;;;4989741;28;20673;-71
2023/03/21 04:51:19;;;;;;;7.47;3.10;;;7.60;99.90;;;;;;4991205;28;20216;-72
2023/03/21 04:53:48;;;;;;;4.17;3.80;;;7.50;99.90;;;;;;4990913;28;20615;-73
2023/03/21 04:56:14;;;;;;;5.60;3.90;;;7.50;99.90;;;;;;4991053;28;20212;-71
2023/03/21 04:58:40;;;;;;;4.80;2.80;;;7.40;99.90;;;;;;4991223;28;20427;-72
2023/03/21 05:01:07;;;;;;;5.00;3.97;;;7.40;99.90;;;;;;4990710;28;20468;-70
2023/03/21 05:03:38;;;;;;;5.50;4.50;;;7.40;99.90;;;;;;4991010;28;20423;-70
2023/03/21 05:06:07;;;;;;;9.50;4.23;;;7.30;99.90;;;;;;4990769;28;20776;-71
2023/03/21 05:08:33;;;;;;;4.07;3.70;;;7.30;99.90;;;;;;4991047;28;20783;-70
2023/03/21 05:10:59;;;;;;;5.30;3.90;;;7.30;99.90;;;;;;4990525;28;20457;-71
2023/03/21 05:13:25;;;;;;;3.60;3.27;;;7.30;99.90;;;;;;4990944;28;20426;-71
2023/03/21 05:15:50;;;;;;;4.03;3.60;;;7.20;99.90;;;;;;4990904;28;20707;-71
2023/03/21 05:18:23;;;;;;;5.00;4.00;;;7.30;99.90;;;;;;4990785;28;20672;-71
2023/03/21 05:20:53;;;;;;;5.30;3.80;;;7.30;99.90;;;;;;4990772;28;20579;-70
2023/03/21 05:23:19;;;;;;;7.50;3.90;;;7.30;99.90;;;;;;4982956;28;20428;-70
2023/03/21 05:25:45;;;;;;;8.97;4.50;;;7.30;99.90;;;;;;4990944;28;20430;-71
2023/03/21 05:28:10;;;;;;;6.73;4.57;;;7.30;99.90;;;;;;4990610;28;20436;-71
2023/03/21 05:30:36;;;;;;;6.20;4.30;;;7.30;99.90;;;;;;4990693;28;20686;-70
2023/03/21 05:33:02;;;;;;;5.23;4.83;;;7.30;99.90;;;;;;4990488;28;20658;-71
2023/03/21 05:35:28;;;;;;;6.13;5.07;;;7.20;99.90;;;;;;4990793;28;20217;-70
2023/03/21 05:37:53;;;;;;;5.70;3.57;;;7.20;99.90;;;;;;4991413;28;20442;-69
2023/03/21 05:40:19;;;;;;;4.03;3.30;;;7.20;99.90;;;;;;4994042;28;20433;-71
2023/03/21 05:42:46;;;;;;;7.67;3.93;;;7.20;99.90;;;;;;4994146;28;20220;-70
2023/03/21 05:45:11;;;;;;;4.50;2.80;;;7.20;99.90;;;;;;4993642;28;20660;-70
2023/03/21 05:47:37;;;;;;;3.57;3.37;;;7.20;99.90;;;;;;4993346;28;20445;-70
2023/03/21 05:50:03;;;;;;;3.33;2.57;;;7.30;99.90;;;;;;4993690;28;20207;-71
2023/03/21 05:52:29;;;;;;;3.40;3.10;;;7.30;99.90;;;;;;4993914;28;20210;-69
2023/03/21 05:54:54;;;;;;;4.60;3.03;;;7.40;99.90;;;;;;4993444;28;20502;-70
2023/03/21 05:57:20;;;;;;;3.57;3.20;;;7.40;99.90;;;;;;4993999;28;20224;-71
2023/03/21 05:59:45;;;;;;;4.30;3.90;;;7.40;99.90;;;;;;4993774;28;20284;-70
2023/03/21 06:02:11;;;;;;;9.30;3.60;;;7.50;99.90;;;;;;4993652;28;20216;-69
2023/03/21 06:04:37;;;;;;;4.10;2.90;;;7.50;99.90;;;;;;4993611;28;20203;-71
2023/03/21 06:07:03;;;;;;;3.50;3.20;;;7.50;99.90;;;;;;4993519;28;20309;-69
2023/03/21 06:09:28;;;;;;;7.50;4.27;;;7.60;99.90;;;;;;4993670;28;20202;-70
2023/03/21 06:11:55;;;;;;;5.40;4.10;;;7.70;99.90;;;;;;4993591;28;20459;-70
2023/03/21 06:14:22;;;;;;;5.00;4.10;;;7.70;99.90;;;;;;4985510;28;20207;-70
2023/03/21 06:16:47;;;;;;;10.93;4.40;;;7.70;99.90;;;;;;4993591;28;20444;-69
2023/03/21 06:19:13;;;;;;;7.93;4.47;;;7.80;99.90;;;;;;4993251;28;20427;-71
2023/03/21 06:21:39;;;;;;;7.03;4.33;;;7.80;99.90;;;;;;4990110;28;20214;-71
2023/03/21 06:24:05;;;;;;;5.50;4.20;;;7.90;99.90;;;;;;4991800;28;20238;-71
2023/03/21 06:26:30;;;;;;;6.67;4.00;;;8.00;99.90;;;;;;4992662;28;20194;-71
2023/03/21 06:28:56;;;;;;;5.43;4.57;;;8.10;99.90;;;;;;4982433;28;20523;-71
2023/03/21 06:31:22;;;;;;;11.27;4.13;;;8.10;99.90;;;;;;4991700;28;20222;-72
2023/03/21 06:33:48;;;;;;;5.73;3.90;;;8.10;99.90;;;;;;4992226;28;20197;-71
2023/03/21 06:36:14;;;;;;;8.33;3.67;;;8.10;99.90;;;;;;4993123;28;20196;-72
2023/03/21 06:38:40;;;;;;;3.60;3.30;;;8.20;99.90;;;;;;4993065;28;20527;-72
2023/03/21 06:41:06;;;;;;;6.30;4.00;;;8.20;99.90;;;;;;4992929;28;20531;-72
2023/03/21 06:43:32;;;;;;;5.00;4.23;;;8.30;99.90;;;;;;4992989;28;20188;-73
2023/03/21 06:45:59;;;;;;;5.40;2.83;;;8.30;99.90;;;;;;4992879;28;20445;-71
2023/03/21 06:48:25;;;;;;;13.43;7.70;;;8.50;99.90;;;;;;4992873;28;20794;-71
2023/03/21 06:50:51;;;;;;;11.30;6.67;;;8.60;99.90;;;;;;4992964;28;20542;-72
2023/03/21 06:53:19;;;;;;;9.00;4.27;;;8.80;99.90;;;;;;4992544;28;20614;-70
2023/03/21 06:55:52;;;;;;;6.70;4.07;;;9.10;99.90;;;;;;4992946;28;20531;-71
2023/03/21 06:58:18;;;;;;;7.20;5.43;;;9.30;99.90;;;;;;4992664;28;20484;-73
2023/03/21 07:00:44;;;;;;;8.83;3.73;;;9.30;99.90;;;;;;4992795;28;20805;-73
2023/03/21 07:03:11;;;;;;;4.77;4.17;;;9.60;99.90;;;;;;4992691;28;20206;-72
2023/03/21 07:05:37;;;;;;;7.87;4.97;;;10.10;99.90;;;;;;4992899;28;20549;-72
2023/03/21 07:08:04;;;;;;;5.27;4.67;;;11.70;99.90;;;;;;4992737;28;20434;-71
2023/03/21 07:10:29;;;;;;;9.33;4.30;;;13.70;99.90;;;;;;4992272;28;20799;-72
2023/03/21 07:12:57;;;;;;;6.03;3.47;;;15.30;99.90;;;;;;4992123;28;20430;-71
2023/03/21 07:15:22;;;;;;;6.03;4.10;;;16.50;99.90;;;;;;4992247;28;20302;-73
2023/03/21 07:17:48;;;;;;;5.50;3.60;;;17.50;99.90;;;;;;4992537;28;20577;-72
2023/03/21 07:20:13;;;;;;;6.03;3.17;;;17.80;99.90;;;;;;4991882;28;20213;-72
2023/03/21 07:22:39;;;;;;;4.93;3.10;;;17.50;99.90;;;;;;4992154;28;20210;-72
2023/03/21 07:25:06;;;;;;;2.60;2.40;;;17.20;99.90;;;;;;4992111;28;20675;-72
2023/03/21 07:27:32;;;;;;;6.10;5.00;;;16.60;99.90;;;;;;4992219;28;20191;-73
2023/03/21 07:29:57;;;;;;;5.10;2.30;;;15.80;99.90;;;;;;4992498;28;20430;-72
2023/03/21 07:32:23;;;;;;;9.53;3.00;;;15.20;99.90;;;;;;4991301;28;20222;-71
2023/03/21 07:34:48;;;;;;;5.13;3.17;;;14.70;99.90;;;;;;4992061;28;20226;-73
2023/03/21 07:37:15;;;;;;;3.93;2.97;;;14.50;99.90;;;;;;4991481;28;20244;-71
2023/03/21 07:39:41;;;;;;;4.40;3.20;;;14.70;99.90;;;;;;4991203;28;20543;-72
2023/03/21 07:42:07;;;;;;;3.97;2.97;;;15.20;99.90;;;;;;4991643;28;20950;-71
2023/03/21 07:44:33;;;;;;;3.07;2.80;;;15.60;99.90;;;;;;4991519;28;20480;-71
2023/03/21 07:46:58;;;;;;;3.10;2.80;;;16.10;99.90;;;;;;4990248;28;20653;-71
2023/03/21 07:49:25;;;;;;;4.17;2.80;;;16.70;99.90;;;;;;4991664;28;20199;-72
2023/03/21 07:51:50;;;;;;;2.87;2.67;;;17.00;99.90;;;;;;4992876;28;20214;-73
2023/03/21 07:54:19;;;;;;;2.60;2.37;;;17.20;99.90;;;;;;4991940;28;20474;-73
2023/03/21 07:56:45;;;;;;;2.80;2.60;;;17.30;99.90;;;;;;4991898;28;20274;-73
2023/03/21 07:59:11;;;;;;;3.50;2.73;;;17.30;99.90;;;;;;4991588;28;20538;-72
2023/03/21 08:01:36;;;;;;;2.13;1.93;;;17.30;99.90;;;;;;4991090;28;20446;-73
2023/03/21 08:04:02;;;;;;;2.23;2.10;;;17.50;99.90;;;;;;4991142;28;20656;-72
2023/03/21 08:06:28;;;;;;;5.83;2.63;;;17.40;99.90;;;;;;4983885;28;20183;-72
2023/03/21 08:08:53;;;;;;;2.53;2.13;;;17.40;99.90;;;;;;4991616;28;20215;-72
2023/03/21 08:11:20;;;;;;;3.33;2.00;;;17.50;99.90;;;;;;4990868;28;20454;-72
2023/03/21 08:13:46;;;;;;;2.93;2.20;;;17.40;99.90;;;;;;4991021;28;20183;-71
2023/03/21 08:16:12;;;;;;;2.43;2.00;;;17.40;99.90;;;;;;4991447;28;20497;-70
2023/03/21 08:18:37;;;;;;;2.17;1.97;;;17.70;99.90;;;;;;4991662;28;20249;-72
2023/03/21 08:21:03;;;;;;;4.03;2.37;;;17.90;99.90;;;;;;4990817;28;20676;-70
2023/03/21 08:23:29;;;;;;;2.80;2.20;;;18.00;99.90;;;;;;4991060;28;20215;-72
2023/03/21 08:25:55;;;;;;;2.87;2.17;;;18.30;99.90;;;;;;4991574;28;20184;-73
2023/03/21 08:28:21;;;;;;;2.17;1.90;;;18.30;99.90;;;;;;4991367;28;20227;-73
2023/03/21 08:30:48;;;;;;;5.60;2.00;;;18.60;99.90;;;;;;4991119;28;20478;-73
2023/03/21 08:33:13;;;;;;;4.37;2.30;;;18.60;99.90;;;;;;4991096;28;20841;-72
2023/03/21 08:35:39;;;;;;;5.60;2.43;;;18.30;99.90;;;;;;4991084;28;20494;-73
2023/03/21 08:38:06;;;;;;;4.00;2.90;;;18.60;99.90;;;;;;4991139;28;20179;-73
2023/03/21 08:40:32;;;;;;;4.03;3.63;;;18.80;99.90;;;;;;4991263;28;20198;-72
2023/03/21 08:42:58;;;;;;;4.80;3.83;;;18.80;99.90;;;;;;4990888;28;20805;-72
2023/03/21 08:45:25;;;;;;;4.17;3.10;;;19.10;99.90;;;;;;4991117;28;20434;-73
2023/03/21 08:47:51;;;;;;;4.17;3.77;;;19.00;99.90;;;;;;4991153;28;20191;-72
2023/03/21 08:50:20;;;;;;;8.23;4.77;;;19.10;99.90;;;;;;4991009;28;20525;-73
2023/03/21 08:52:45;;;;;;;4.73;4.10;;;19.20;99.90;;;;;;4990992;28;20560;-73
2023/03/21 08:55:12;;;;;;;7.77;3.60;;;19.40;99.90;;;;;;4990968;28;20469;-71
2023/03/21 08:57:38;;;;;;;6.10;3.70;;;19.00;99.90;;;;;;4991224;28;20190;-72
2023/03/21 09:00:11;;;;;;;15.47;5.23;;;19.10;99.90;;;;;;4991407;28;21088;-72
2023/03/21 09:02:37;;;;;;;5.87;3.13;;;19.30;99.90;;;;;;4983843;28;20214;-72
2023/03/21 09:05:04;;;;;;;4.47;2.90;;;19.80;99.90;;;;;;4990914;28;20429;-73
2023/03/21 09:07:32;;;;;;;6.10;3.70;;;20.20;99.90;;;;;;4991054;28;20277;-72
2023/03/21 09:09:59;;;;;;;5.80;2.70;;;20.30;99.90;;;;;;4990880;28;20918;-73
2023/03/21 09:12:25;;;;;;;4.07;3.53;;;20.30;99.90;;;;;;4991048;28;20454;-72
2023/03/21 09:14:52;;;;;;;4.10;2.37;;;20.30;99.90;;;;;;4994562;28;20541;-73
2023/03/21 09:17:18;;;;;;;2.23;2.03;;;19.70;99.90;;;;;;4994758;28;20430;-72
2023/03/21 09:19:45;;;;;;;3.50;2.60;;;19.00;99.90;;;;;;4994747;28;20442;-72
2023/03/21 09:22:16;;;;;;;4.50;2.53;;;19.70;99.90;;;;;;4994639;28;20508;-72
2023/03/21 09:24:42;;;;;;;2.57;2.37;;;19.80;99.90;;;;;;4994419;28;20433;-72
2023/03/21 09:27:09;;;;;;;3.90;2.37;;;19.60;99.90;;;;;;4994518;28;20442;-71
2023/03/21 09:29:34;;;;;;;2.93;2.23;;;19.90;99.90;;;;;;4994818;28;20485;-71
2023/03/21 09:32:00;;;;;;;5.93;2.87;;;19.80;99.90;;;;;;4994339;28;20470;-71
2023/03/21 09:34:27;;;;;;;6.83;3.20;;;20.20;99.90;;;;;;4994137;28;20719;-70
2023/03/21 09:36:55;;;;;;;2.60;2.40;;;20.30;99.90;;;;;;4994518;28;20183;-71
2023/03/21 09:39:21;;;;;;;4.47;2.53;;;19.80;99.90;;;;;;4994363;28;20422;-71
2023/03/21 09:42:14;;;;;;;3.13;2.43;;;20.00;99.90;;;;;;4994294;28;20451;-71
2023/03/21 09:45:08;;;;;;;3.13;2.50;;;20.50;99.90;;;;;;4980130;28;20881;-71
2023/03/21 09:47:48;;;;;;;5.00;2.83;;;21.10;99.90;;;;;;4983301;28;20473;-71
2023/03/21 09:50:19;;;;;;;3.43;2.30;;;21.50;99.90;;;;;;4994153;28;20442;-71
2023/03/21 09:52:55;;;;;;;2.10;1.90;;;21.60;99.90;;;;;;4994050;28;20774;-71
2023/03/21 09:55:25;;;;;;;3.53;2.30;;;21.90;99.90;;;;;;4994102;28;20989;-71
2023/03/21 09:58:03;;;;;;;2.30;1.93;;;22.10;99.90;;;;;;4994193;28;20427;-72
2023/03/21 10:00:42;;;;;;;1.90;1.80;;;21.90;99.90;;;;;;4993833;28;20425;-71
2023/03/21 10:03:33;;;;;;;6.10;2.17;;;21.90;99.90;;;;;;4993791;28;20430;-71
2023/03/21 10:06:02;;;;;;;2.23;2.03;;;21.60;99.90;;;;;;4993902;28;20457;-72
2023/03/21 10:08:35;;;;;;;5.23;2.47;;;21.50;99.90;;;;;;4993923;28;20434;-72
2023/03/21 10:11:26;;;;;;;3.87;2.10;;;21.10;99.90;;;;;;4993678;28;20469;-72
2023/03/21 10:14:03;;;;;;;2.50;1.83;;;20.70;99.90;;;;;;4992048;28;20801;-73
2023/03/21 10:16:36;;;;;;;2.20;2.00;;;20.60;99.90;;;;;;4993722;28;20426;-73
2023/03/21 10:19:09;;;;;;;2.03;1.63;;;20.90;99.90;;;;;;4993412;28;20793;-73
2023/03/21 10:21:42;;;;;;;1.97;1.63;;;21.30;99.90;;;;;;4993322;28;20438;-73
2023/03/21 10:24:15;;;;;;;3.57;1.67;;;21.70;99.20;;;;;;4992888;28;20430;-73
2023/03/21 10:26:42;;;;;;;2.87;1.80;;;21.90;99.00;;;;;;4986304;28;20430;-73
2023/03/21 10:29:11;;;;;;;2.60;1.77;;;22.30;99.30;;;;;;4993375;28;20927;-73
2023/03/21 10:31:37;;;;;;;7.67;2.17;;;22.60;97.40;;;;;;4985373;28;20462;-74
2023/03/21 10:34:09;;;;;;;2.13;1.90;;;22.50;97.80;;;;;;4992645;28;20438;-72
2023/03/21 10:36:34;;;;;;;1.77;1.67;;;22.90;96.90;;;;;;4993259;28;20183;-74
2023/03/21 10:39:07;;;;;;;3.03;2.07;;;22.90;96.80;;;;;;4993168;28;20521;-74
2023/03/21 10:41:32;;;;;;;2.50;1.40;;;22.10;96.20;;;;;;4992916;28;20206;-73
2023/03/21 10:44:13;;;;;;;2.40;1.50;;;21.70;96.60;;;;;;4992778;28;20430;-73
2023/03/21 10:46:53;;;;;;;3.00;1.90;;;21.60;97.10;;;;;;4985515;28;20652;-73
2023/03/21 10:49:20;;;;;;;7.20;3.00;;;21.60;96.10;;;;;;4992905;28;20437;-73
2023/03/21 10:51:48;;;;;;;6.37;2.43;;;21.40;95.00;;;;;;4992803;28;20457;-73
2023/03/21 10:54:17;;;;;;;2.77;1.80;;;21.10;95.70;;;;;;4992400;28;20978;-73
2023/03/21 10:56:59;;;;;;;4.53;1.80;;;21.10;96.90;;;;;;4993232;28;20430;-75
2023/03/21 10:59:29;;;;;;;2.70;1.63;;;20.70;95.50;;;;;;4992750;28;20414;-73
2023/03/21 11:01:55;;;;;;;3.00;2.03;;;19.90;96.20;;;;;;4992684;28;20461;-74
2023/03/21 11:04:25;;;;;;;2.40;1.53;;;19.80;99.20;;;;;;4992425;28;20431;-74
2023/03/21 11:07:08;;;;;;;6.20;2.00;;;19.70;98.10;;;;;;4992929;28;20454;-74
2023/03/21 11:09:54;;;;;;;2.03;1.33;;;19.70;99.00;;;;;;4992539;28;20930;-72
2023/03/21 11:12:36;;;;;;;2.50;1.70;;;19.80;99.90;;;;;;4992509;28;20827;-73
2023/03/21 11:15:27;;;;;;;5.20;2.00;;;19.90;99.90;;;;;;4992257;28;20565;-73
2023/03/21 11:17:53;;;;;;;2.37;1.70;;;19.80;99.90;;;;;;4966598;28;20478;-74
2023/03/21 11:20:19;;;;;;;2.33;1.60;;;19.80;99.90;;;;;;4992232;28;20454;-73
2023/03/21 11:22:46;;;;;;;1.93;1.80;;;19.80;99.90;;;;;;4992089;28;20183;-73
2023/03/21 11:25:38;;;;;;;2.83;1.90;;;19.80;99.90;;;;;;4992528;28;20441;-72
2023/03/21 11:28:19;;;;;;;1.80;1.60;;;19.80;99.90;;;;;;4987537;28;20517;-73
2023/03/21 11:30:57;;;;;;;1.50;1.40;;;19.50;99.90;;;;;;4984686;28;20464;-72
2023/03/21 11:33:27;;;;;;;1.73;1.47;;;19.30;99.90;;;;;;4991738;28;20812;-73
2023/03/21 11:35:58;;;;;;;3.30;1.83;;;19.40;99.90;;;;;;4991273;28;20470;-73
2023/03/21 11:38:28;;;;;;;2.40;1.47;;;19.40;99.90;;;;;;4992056;28;20430;-73
2023/03/21 11:40:58;;;;;;;1.93;1.70;;;19.30;99.90;;;;;;4991789;28;20438;-73
2023/03/21 11:43:25;;;;;;;2.27;2.00;;;19.00;99.90;;;;;;4990423;28;20465;-72
2023/03/21 11:46:06;;;;;;;3.70;1.50;;;18.90;99.90;;;;;;4991831;28;20815;-73
2023/03/21 11:48:43;;;;;;;1.67;1.53;;;19.00;99.90;;;;;;4991938;28;20434;-73
2023/03/21 11:51:17;;;;;;;2.70;2.27;;;19.00;99.90;;;;;;4992093;28;20966;-73
2023/03/21 11:54:08;;;;;;;1.70;1.60;;;18.80;99.90;;;;;;4983962;28;20430;-73
2023/03/21 11:56:50;;;;;;;1.40;1.30;;;18.60;99.90;;;;;;4991864;28;20431;-73
2023/03/21 11:59:24;;;;;;;3.23;1.63;;;18.40;99.90;;;;;;4992161;28;20971;-73
2023/03/21 12:02:09;;;;;;;4.47;2.00;;;18.40;99.90;;;;;;4986036;28;20446;-73
2023/03/21 12:04:53;;;;;;;3.17;2.87;;;18.50;99.90;;;;;;4992592;28;20915;-73
2023/03/21 12:07:35;;;;;;;5.83;2.90;;;18.40;99.90;;;;;;4992016;28;20426;-71
2023/03/21 12:10:28;;;;;;;3.23;2.50;;;18.40;99.90;;;;;;4992539;28;20428;-74
2023/03/21 12:13:06;;;;;;;2.80;2.30;;;18.30;99.90;;;;;;4986068;28;20769;-72
2023/03/21 12:15:50;;;;;;;3.23;3.00;;;18.20;99.90;;;;;;4991607;28;21003;-73
2023/03/21 12:18:37;;;;;;;3.30;2.63;;;18.10;99.90;;;;;;4991936;28;20422;-72
2023/03/21 12:21:29;;;;;;;7.20;3.10;;;17.90;99.90;;;;;;4986048;28;20448;-72
2023/03/21 12:24:17;;;;;;;6.90;2.40;;;17.90;99.90;;;;;;4985043;28;20512;-72
2023/03/21 12:26:54;;;;;;;3.00;2.50;;;17.80;99.90;;;;;;4991539;28;20926;-73
2023/03/21 12:29:25;;;;;;;3.80;2.80;;;17.60;99.90;;;;;;4991324;28;20446;-71
2023/03/21 12:31:57;;;;;;;4.40;3.23;;;17.60;99.90;;;;;;4991143;28;20457;-72
2023/03/21 12:34:48;;;;;;;4.20;2.80;;;17.50;99.90;;;;;;4989590;28;20465;-71
2023/03/21 12:37:29;;;;;;;4.17;3.30;;;17.50;99.90;;;;;;4991409;28;20755;-72
2023/03/21 12:40:08;;;;;;;6.87;3.07;;;17.60;99.90;;;;;;4991443;28;20426;-73
2023/03/21 12:43:16;;;;;;;5.60;2.53;;;17.70;99.90;;;;;;4991039;28;20438;-73
2023/03/21 12:45:47;;;;;;;5.27;3.47;;;17.90;99.90;;;;;;4991144;28;20426;-73
2023/03/21 12:48:42;;;;;;;2.03;1.50;;;17.90;99.90;;;;;;4994718;28;20426;-72
2023/03/21 12:51:13;;;;;;;1.47;1.33;;;17.90;99.90;;;;;;4920892;28;20465;-72
2023/03/21 12:54:03;;;;;;;1.23;1.07;;;18.00;99.90;;;;;;4994798;28;20944;-73
2023/03/21 12:56:44;;;;;;;3.77;1.30;;;18.10;99.90;;;;;;4995136;28;20456;-73
2023/03/21 12:59:35;;;;;;;2.40;1.10;;;18.20;99.90;;;;;;4995246;28;20770;-72
2023/03/21 13:02:22;;;;;;;1.20;1.10;;;18.30;99.90;;;;;;4989111;28;20434;-72
2023/03/21 13:05:15;;;;;;;2.70;1.20;;;18.50;99.90;;;;;;4986636;28;20438;-72
2023/03/21 13:07:43;;;;;;;1.77;1.53;;;18.60;99.90;;;;;;4995378;28;20437;-72
2023/03/21 13:10:15;;;;;;;1.97;1.83;;;18.80;99.90;;;;;;4994838;28;20461;-72
2023/03/21 13:12:43;;;;;;;1.43;1.33;;;18.80;99.90;;;;;;4994485;28;20449;-72
2023/03/21 13:15:39;;;;;;;0.97;0.97;;;18.70;99.90;;;;;;4994506;28;20481;-73
2023/03/21 13:18:08;;;;;;;3.63;1.53;;;18.60;99.90;;;;;;4989282;28;20430;-72
2023/03/21 13:20:50;;;;;;;1.40;1.30;;;18.40;99.90;;;;;;4994337;28;20480;-72
2023/03/21 13:23:18;;;;;;;2.47;1.87;;;18.50;99.90;;;;;;4994478;28;20468;-72
2023/03/21 13:25:49;;;;;;;1.80;1.27;;;18.50;99.90;;;;;;4994382;28;20791;-71
2023/03/21 13:28:24;;;;;;;2.00;1.40;;;18.50;99.90;;;;;;4993540;28;20458;-71
2023/03/21 13:30:51;;;;;;;1.43;1.10;;;18.50;99.90;;;;;;4986591;28;21172;-71
2023/03/21 13:33:28;;;;;;;2.80;1.90;;;18.60;99.90;;;;;;4994185;28;20438;-71
2023/03/21 13:36:06;;;;;;;1.70;1.30;;;18.50;99.90;;;;;;4994377;28;20881;-71
2023/03/21 13:38:34;;;;;;;2.30;1.50;;;18.60;99.90;;;;;;4994302;28;20418;-70
2023/03/21 13:41:11;;;;;;;1.67;1.50;;;18.40;99.90;;;;;;4994108;28;20458;-72
2023/03/21 13:44:19;;;;;;;2.93;1.47;;;18.20;99.90;;;;;;4993830;28;20422;-69
2023/03/21 13:47:03;;;;;;;1.63;1.30;;;18.10;99.90;;;;;;4988318;28;20525;-71
2023/03/21 13:49:37;;;;;;;1.80;1.70;;;17.90;99.90;;;;;;4994042;28;20484;-71
2023/03/21 13:52:08;;;;;;;2.20;1.20;;;17.90;99.90;;;;;;4993930;28;20509;-71
2023/03/21 13:55:03;;;;;;;3.23;1.57;;;17.80;99.90;;;;;;4993535;28;20474;-71
2023/03/21 13:57:29;;;;;;;2.43;1.47;;;17.70;99.90;;;;;;4985182;28;20440;-71
2023/03/21 14:00:16;;;;;;;1.83;1.47;;;17.70;99.90;;;;;;4989161;28;20561;-72
2023/03/21 14:03:16;;;;;;;3.90;1.43;;;17.70;99.90;;;;;;4983675;28;20537;-73
2023/03/21 14:05:49;;;;;;;1.50;1.40;;;17.60;99.90;;;;;;4992370;28;20453;-73
2023/03/21 14:08:19;;;;;;;2.23;1.60;;;17.50;99.90;;;;;;4992865;28;20804;-73
2023/03/21 14:10:48;;;;;;;2.80;1.53;;;17.50;99.90;;;;;;4992399;28;20450;-73
2023/03/21 14:13:21;;;;;;;2.40;1.33;;;17.40;99.90;;;;;;4992361;28;20453;-72
2023/03/21 14:15:57;;;;;;;1.90;1.80;;;17.50;99.90;;;;;;4992523;28;20474;-74
2023/03/21 14:18:25;;;;;;;1.50;1.40;;;17.60;99.90;;;;;;4992697;28;20442;-72
2023/03/21 14:20:58;;;;;;;5.33;1.40;;;17.50;99.90;;;;;;4992645;28;20450;-73
2023/03/21 14:23:24;;;;;;;3.20;2.00;;;17.50;99.90;;;;;;4992806;28;20454;-71
2023/03/21 14:25:50;;;;;;;6.23;2.47;;;17.50;99.90;;;;;;4985049;28;20472;-70
2023/03/21 14:28:19;;;;;;;4.23;2.60;;;17.40;99.90;;;;;;4992486;28;20959;-72
2023/03/21 14:30:48;;;;;;;2.80;2.37;;;17.50;99.90;;;;;;4992059;28;20247;-71
2023/03/21 14:33:30;;;;;;;5.00;2.53;;;17.50;99.90;;;;;;4991971;28;20470;-73
2023/03/21 14:35:59;;;;;;;8.03;3.00;;;17.40;99.90;;;;;;4985086;28;20870;-72
2023/03/21 14:38:32;;;;;;;2.80;2.20;;;17.40;99.90;;;;;;4991942;28;20477;-71